sensor_id;sensor_type;location;lat;lon;timestamp;temperature;humidity
52621;DHT22;38515;53.160;6.990;2023-04-24T00:00:20;10.50;99.90
52621;DHT22;38515;53.160;6.990;2023-04-24T00:02:46;10.50;99.90
52621;DHT22;38515;53.160;6.990;2023-04-24T00:05:13;10.40;99.90
52621;DHT22;38515;53.160;6.990;2023-04-24T00:07:40;10.20;99.90
52621;DHT22;38515;53.160;6.990;2023-04-24T00:10:07;10.10;99.90
52621;DHT22;38515;53.160;6.990;2023-04-24T00:12:33;10.00;99.90
52621;DHT22;38515;53.160;6.990;2023-04-24T00:14:59;9.90;99.90
52621;DHT22;38515;53.160;6.990;2023-04-24T00:17:26;9.80;99.90
52621;DHT22;38515;53.160;6.990;2023-04-24T00:19:52;9.80;99.90
52621;DHT22;38515;53.160;6.990;2023-04-24T00:22:27;9.80;99.90
52621;DHT22;38515;53.160;6.990;2023-04-24T00:24:54;9.70;99.90
52621;DHT22;38515;53.160;6.990;2023-04-24T00:27:20;9.60;99.90
52621;DHT22;38515;53.160;6.990;2023-04-24T00:29:46;9.60;99.90
52621;DHT22;38515;53.160;6.990;2023-04-24T00:32:11;9.50;99.90
52621;DHT22;38515;53.160;6.990;2023-04-24T00:34:37;9.50;99.90
52621;DHT22;38515;53.160;6.990;2023-04-24T00:37:03;9.50;99.90
52621;DHT22;38515;53.160;6.990;2023-04-24T00:39:29;9.40;99.90
52621;DHT22;38515;53.160;6.990;2023-04-24T00:41:55;9.40;99.90
52621;DHT22;38515;53.160;6.990;2023-04-24T00:44:22;9.40;99.90
52621;DHT22;38515;53.160;6.990;2023-04-24T00:46:49;9.40;99.90
52621;DHT22;38515;53.160;6.990;2023-04-24T00:49:21;9.40;99.90
52621;DHT22;38515;53.160;6.990;2023-04-24T00:51:47;9.40;99.90
52621;DHT22;38515;53.160;6.990;2023-04-24T00:54:13;9.40;99.90
52621;DHT22;38515;53.160;6.990;2023-04-24T00:56:40;9.30;99.90
52621;DHT22;38515;53.160;6.990;2023-04-24T00:59:06;9.30;99.90
52621;DHT22;38515;53.160;6.990;2023-04-24T01:01:32;9.30;99.90
52621;DHT22;38515;53.160;6.990;2023-04-24T01:03:59;9.40;99.90
52621;DHT22;38515;53.160;6.990;2023-04-24T01:06:28;9.30;99.90
52621;DHT22;38515;53.160;6.990;2023-04-24T01:08:57;9.40;99.90
52621;DHT22;38515;53.160;6.990;2023-04-24T01:11:25;9.40;99.90
52621;DHT22;38515;53.160;6.990;2023-04-24T01:13:52;9.40;99.90
52621;DHT22;38515;53.160;6.990;2023-04-24T01:16:18;9.40;99.90
52621;DHT22;38515;53.160;6.990;2023-04-24T01:18:46;9.50;99.90
52621;DHT22;38515;53.160;6.990;2023-04-24T01:21:14;9.40;99.90
52621;DHT22;38515;53.160;6.990;2023-04-24T01:23:43;9.40;99.90
52621;DHT22;38515;53.160;6.990;2023-04-24T01:26:08;9.40;99.90
52621;DHT22;38515;53.160;6.990;2023-04-24T01:28:34;9.40;99.90
52621;DHT22;38515;53.160;6.990;2023-04-24T01:31:01;9.40;99.90
52621;DHT22;38515;53.160;6.990;2023-04-24T01:33:26;9.40;99.90
52621;DHT22;38515;53.160;6.990;2023-04-24T01:35:52;9.50;99.90
52621;DHT22;38515;53.160;6.990;2023-04-24T01:38:19;9.50;99.90
52621;DHT22;38515;53.160;6.990;2023-04-24T01:40:45;9.50;99.90
52621;DHT22;38515;53.160;6.990;2023-04-24T01:43:15;9.50;99.90
52621;DHT22;38515;53.160;6.990;2023-04-24T01:45:41;9.40;99.90
52621;DHT22;38515;53.160;6.990;2023-04-24T01:48:07;9.50;99.90
52621;DHT22;38515;53.160;6.990;2023-04-24T01:50:33;9.40;99.90
52621;DHT22;38515;53.160;6.990;2023-04-24T01:52:59;9.50;99.90
52621;DHT22;38515;53.160;6.990;2023-04-24T01:55:24;9.40;99.90
52621;DHT22;38515;53.160;6.990;2023-04-24T01:57:52;9.40;99.90
52621;DHT22;38515;53.160;6.990;2023-04-24T02:00:18;9.50;99.90
52621;DHT22;38515;53.160;6.990;2023-04-24T02:02:44;9.40;99.90
52621;DHT22;38515;53.160;6.990;2023-04-24T02:05:10;9.50;99.90
52621;DHT22;38515;53.160;6.990;2023-04-24T02:07:36;9.50;99.90
52621;DHT22;38515;53.160;6.990;2023-04-24T02:10:03;9.50;99.90
52621;DHT22;38515;53.160;6.990;2023-04-24T02:12:29;9.30;99.90
52621;DHT22;38515;53.160;6.990;2023-04-24T02:14:55;9.30;99.90
52621;DHT22;38515;53.160;6.990;2023-04-24T02:17:21;9.40;99.90
52621;DHT22;38515;53.160;6.990;2023-04-24T02:19:48;9.50;99.90
52621;DHT22;38515;53.160;6.990;2023-04-24T02:22:14;9.40;99.90
52621;DHT22;38515;53.160;6.990;2023-04-24T02:24:40;9.50;99.90
52621;DHT22;38515;53.160;6.990;2023-04-24T02:27:06;9.40;99.90
52621;DHT22;38515;53.160;6.990;2023-04-24T02:29:32;9.50;99.90
52621;DHT22;38515;53.160;6.990;2023-04-24T02:31:58;9.40;99.90
52621;DHT22;38515;53.160;6.990;2023-04-24T02:34:24;9.40;99.90
52621;DHT22;38515;53.160;6.990;2023-04-24T02:36:50;9.50;99.90
52621;DHT22;38515;53.160;6.990;2023-04-24T02:39:16;9.40;99.90
52621;DHT22;38515;53.160;6.990;2023-04-24T02:41:43;9.50;99.90
52621;DHT22;38515;53.160;6.990;2023-04-24T02:44:09;9.90;99.90
52621;DHT22;38515;53.160;6.990;2023-04-24T02:46:35;9.40;99.90
52621;DHT22;38515;53.160;6.990;2023-04-24T02:49:01;9.60;99.90
52621;DHT22;38515;53.160;6.990;2023-04-24T02:51:26;9.40;99.90
52621;DHT22;38515;53.160;6.990;2023-04-24T02:53:52;9.30;99.90
52621;DHT22;38515;53.160;6.990;2023-04-24T02:56:18;9.30;99.90
52621;DHT22;38515;53.160;6.990;2023-04-24T02:58:44;9.40;99.90
52621;DHT22;38515;53.160;6.990;2023-04-24T03:01:10;9.20;99.90
52621;DHT22;38515;53.160;6.990;2023-04-24T03:03:37;9.30;99.90
52621;DHT22;38515;53.160;6.990;2023-04-24T03:06:03;9.30;99.90
52621;DHT22;38515;53.160;6.990;2023-04-24T03:08:31;9.20;99.90
52621;DHT22;38515;53.160;6.990;2023-04-24T03:10:57;9.20;99.90
52621;DHT22;38515;53.160;6.990;2023-04-24T03:13:24;9.20;99.90
52621;DHT22;38515;53.160;6.990;2023-04-24T03:15:49;9.20;99.90
52621;DHT22;38515;53.160;6.990;2023-04-24T03:18:15;9.20;99.90
52621;DHT22;38515;53.160;6.990;2023-04-24T03:20:41;9.30;99.90
52621;DHT22;38515;53.160;6.990;2023-04-24T03:23:07;9.10;99.90
52621;DHT22;38515;53.160;6.990;2023-04-24T03:25:32;9.10;99.90
52621;DHT22;38515;53.160;6.990;2023-04-24T03:27:58;9.10;99.90
52621;DHT22;38515;53.160;6.990;2023-04-24T03:30:24;9.10;99.90
52621;DHT22;38515;53.160;6.990;2023-04-24T03:32:50;9.10;99.90
52621;DHT22;38515;53.160;6.990;2023-04-24T03:35:16;9.10;99.90
52621;DHT22;38515;53.160;6.990;2023-04-24T03:37:41;9.20;99.90
52621;DHT22;38515;53.160;6.990;2023-04-24T03:40:10;9.00;99.90
52621;DHT22;38515;53.160;6.990;2023-04-24T03:42:37;9.00;99.90
52621;DHT22;38515;53.160;6.990;2023-04-24T03:45:03;9.00;99.90
52621;DHT22;38515;53.160;6.990;2023-04-24T03:47:29;9.00;99.90
52621;DHT22;38515;53.160;6.990;2023-04-24T03:49:55;8.90;99.90
52621;DHT22;38515;53.160;6.990;2023-04-24T03:52:21;9.00;99.90
52621;DHT22;38515;53.160;6.990;2023-04-24T03:54:47;8.90;99.90
52621;DHT22;38515;53.160;6.990;2023-04-24T03:57:13;8.90;99.90
52621;DHT22;38515;53.160;6.990;2023-04-24T03:59:38;9.10;99.90
52621;DHT22;38515;53.160;6.990;2023-04-24T04:02:04;8.90;99.90
52621;DHT22;38515;53.160;6.990;2023-04-24T04:04:30;9.00;99.90
52621;DHT22;38515;53.160;6.990;2023-04-24T04:06:56;8.80;99.90
52621;DHT22;38515;53.160;6.990;2023-04-24T04:09:21;8.90;99.90
52621;DHT22;38515;53.160;6.990;2023-04-24T04:11:47;9.00;99.90
52621;DHT22;38515;53.160;6.990;2023-04-24T04:14:13;8.90;99.90
52621;DHT22;38515;53.160;6.990;2023-04-24T04:16:39;8.90;99.90
52621;DHT22;38515;53.160;6.990;2023-04-24T04:19:05;9.00;99.90
52621;DHT22;38515;53.160;6.990;2023-04-24T04:21:31;8.90;99.90
52621;DHT22;38515;53.160;6.990;2023-04-24T04:23:57;9.00;99.90
52621;DHT22;38515;53.160;6.990;2023-04-24T04:26:23;8.90;99.90
52621;DHT22;38515;53.160;6.990;2023-04-24T04:28:52;8.80;99.90
52621;DHT22;38515;53.160;6.990;2023-04-24T04:31:19;9.00;99.90
52621;DHT22;38515;53.160;6.990;2023-04-24T04:33:45;8.80;99.90
52621;DHT22;38515;53.160;6.990;2023-04-24T04:36:11;8.90;99.90
52621;DHT22;38515;53.160;6.990;2023-04-24T04:38:37;8.90;99.90
52621;DHT22;38515;53.160;6.990;2023-04-24T04:41:03;8.80;99.90
52621;DHT22;38515;53.160;6.990;2023-04-24T04:43:29;9.00;99.90
52621;DHT22;38515;53.160;6.990;2023-04-24T04:45:57;8.80;99.90
52621;DHT22;38515;53.160;6.990;2023-04-24T04:48:23;9.00;99.90
52621;DHT22;38515;53.160;6.990;2023-04-24T04:50:49;9.00;99.90
52621;DHT22;38515;53.160;6.990;2023-04-24T04:53:15;8.90;99.90
52621;DHT22;38515;53.160;6.990;2023-04-24T04:55:41;8.90;99.90
52621;DHT22;38515;53.160;6.990;2023-04-24T04:58:06;8.90;99.90
52621;DHT22;38515;53.160;6.990;2023-04-24T05:00:32;8.90;99.90
52621;DHT22;38515;53.160;6.990;2023-04-24T05:03:01;9.10;99.90
52621;DHT22;38515;53.160;6.990;2023-04-24T05:05:28;8.90;99.90
52621;DHT22;38515;53.160;6.990;2023-04-24T05:07:54;8.90;99.90
52621;DHT22;38515;53.160;6.990;2023-04-24T05:10:20;9.00;99.90
52621;DHT22;38515;53.160;6.990;2023-04-24T05:12:45;9.10;99.90
52621;DHT22;38515;53.160;6.990;2023-04-24T05:15:11;8.90;99.90
52621;DHT22;38515;53.160;6.990;2023-04-24T05:17:37;9.00;99.90
52621;DHT22;38515;53.160;6.990;2023-04-24T05:20:06;9.00;99.90
52621;DHT22;38515;53.160;6.990;2023-04-24T05:22:32;9.00;99.90
52621;DHT22;38515;53.160;6.990;2023-04-24T05:24:58;8.90;99.90
52621;DHT22;38515;53.160;6.990;2023-04-24T05:27:24;9.00;99.90
52621;DHT22;38515;53.160;6.990;2023-04-24T05:29:50;8.90;99.90
52621;DHT22;38515;53.160;6.990;2023-04-24T05:32:16;9.10;99.90
52621;DHT22;38515;53.160;6.990;2023-04-24T05:34:43;8.90;99.90
52621;DHT22;38515;53.160;6.990;2023-04-24T05:37:08;9.00;99.90
52621;DHT22;38515;53.160;6.990;2023-04-24T05:39:36;9.00;99.90
52621;DHT22;38515;53.160;6.990;2023-04-24T05:42:02;9.00;99.90
52621;DHT22;38515;53.160;6.990;2023-04-24T05:44:30;9.00;99.90
52621;DHT22;38515;53.160;6.990;2023-04-24T05:46:56;9.20;99.90
52621;DHT22;38515;53.160;6.990;2023-04-24T05:49:23;9.10;99.90
52621;DHT22;38515;53.160;6.990;2023-04-24T05:51:49;9.10;99.90
52621;DHT22;38515;53.160;6.990;2023-04-24T05:54:15;9.10;99.90
52621;DHT22;38515;53.160;6.990;2023-04-24T05:56:41;9.20;99.90
52621;DHT22;38515;53.160;6.990;2023-04-24T05:59:08;9.20;99.90
52621;DHT22;38515;53.160;6.990;2023-04-24T06:01:33;9.10;99.90
52621;DHT22;38515;53.160;6.990;2023-04-24T06:03:59;9.20;99.90
52621;DHT22;38515;53.160;6.990;2023-04-24T06:06:26;9.00;99.90
52621;DHT22;38515;53.160;6.990;2023-04-24T06:08:52;9.20;99.90
52621;DHT22;38515;53.160;6.990;2023-04-24T06:11:18;9.00;99.90
52621;DHT22;38515;53.160;6.990;2023-04-24T06:13:44;9.10;99.90
52621;DHT22;38515;53.160;6.990;2023-04-24T06:16:11;9.00;99.90
52621;DHT22;38515;53.160;6.990;2023-04-24T06:18:36;9.00;99.90
52621;DHT22;38515;53.160;6.990;2023-04-24T06:21:02;9.20;99.90
52621;DHT22;38515;53.160;6.990;2023-04-24T06:23:28;9.10;99.90
52621;DHT22;38515;53.160;6.990;2023-04-24T06:25:54;9.10;99.90
52621;DHT22;38515;53.160;6.990;2023-04-24T06:28:20;9.10;99.90
52621;DHT22;38515;53.160;6.990;2023-04-24T06:30:46;9.00;99.90
52621;DHT22;38515;53.160;6.990;2023-04-24T06:33:12;9.00;99.90
52621;DHT22;38515;53.160;6.990;2023-04-24T06:35:38;9.10;99.90
52621;DHT22;38515;53.160;6.990;2023-04-24T06:38:04;9.00;99.90
52621;DHT22;38515;53.160;6.990;2023-04-24T06:40:30;9.10;99.90
52621;DHT22;38515;53.160;6.990;2023-04-24T06:42:56;9.30;99.90
52621;DHT22;38515;53.160;6.990;2023-04-24T06:45:23;9.10;99.90
52621;DHT22;38515;53.160;6.990;2023-04-24T06:47:49;9.10;99.90
52621;DHT22;38515;53.160;6.990;2023-04-24T06:50:14;9.20;99.90
52621;DHT22;38515;53.160;6.990;2023-04-24T06:52:41;9.10;99.90
52621;DHT22;38515;53.160;6.990;2023-04-24T06:55:07;9.40;99.90
52621;DHT22;38515;53.160;6.990;2023-04-24T06:57:33;9.00;99.90
52621;DHT22;38515;53.160;6.990;2023-04-24T06:59:59;9.20;99.90
52621;DHT22;38515;53.160;6.990;2023-04-24T07:02:25;9.20;99.90
52621;DHT22;38515;53.160;6.990;2023-04-24T07:04:50;9.40;99.90
52621;DHT22;38515;53.160;6.990;2023-04-24T07:07:16;9.10;99.90
52621;DHT22;38515;53.160;6.990;2023-04-24T07:09:43;9.20;99.90
52621;DHT22;38515;53.160;6.990;2023-04-24T07:12:09;9.20;99.90
52621;DHT22;38515;53.160;6.990;2023-04-24T07:14:39;9.40;99.90
52621;DHT22;38515;53.160;6.990;2023-04-24T07:17:05;9.30;99.90
52621;DHT22;38515;53.160;6.990;2023-04-24T07:19:33;9.30;99.90
52621;DHT22;38515;53.160;6.990;2023-04-24T07:21:59;9.20;99.90
52621;DHT22;38515;53.160;6.990;2023-04-24T07:24:25;9.30;99.90
52621;DHT22;38515;53.160;6.990;2023-04-24T07:26:52;9.40;99.90
52621;DHT22;38515;53.160;6.990;2023-04-24T07:29:19;9.40;99.90
52621;DHT22;38515;53.160;6.990;2023-04-24T07:31:45;9.40;99.90
52621;DHT22;38515;53.160;6.990;2023-04-24T07:34:11;9.30;99.90
52621;DHT22;38515;53.160;6.990;2023-04-24T07:36:37;9.40;99.90
52621;DHT22;38515;53.160;6.990;2023-04-24T07:39:05;9.40;99.90
52621;DHT22;38515;53.160;6.990;2023-04-24T07:41:31;9.50;99.90
52621;DHT22;38515;53.160;6.990;2023-04-24T07:43:58;9.50;99.90
52621;DHT22;38515;53.160;6.990;2023-04-24T07:46:24;9.70;99.90
52621;DHT22;38515;53.160;6.990;2023-04-24T07:48:50;9.60;99.90
52621;DHT22;38515;53.160;6.990;2023-04-24T07:51:16;9.80;99.90
52621;DHT22;38515;53.160;6.990;2023-04-24T07:53:43;9.80;99.90
52621;DHT22;38515;53.160;6.990;2023-04-24T07:56:09;10.00;99.90
52621;DHT22;38515;53.160;6.990;2023-04-24T07:58:35;9.90;99.90
52621;DHT22;38515;53.160;6.990;2023-04-24T08:01:01;9.90;99.90
52621;DHT22;38515;53.160;6.990;2023-04-24T08:03:27;10.00;99.90
52621;DHT22;38515;53.160;6.990;2023-04-24T08:05:53;9.80;99.90
52621;DHT22;38515;53.160;6.990;2023-04-24T08:08:21;9.90;99.90
52621;DHT22;38515;53.160;6.990;2023-04-24T08:10:48;9.70;99.90
52621;DHT22;38515;53.160;6.990;2023-04-24T08:13:14;9.60;99.90
52621;DHT22;38515;53.160;6.990;2023-04-24T08:15:39;9.80;99.90
52621;DHT22;38515;53.160;6.990;2023-04-24T08:18:05;9.60;99.90
52621;DHT22;38515;53.160;6.990;2023-04-24T08:20:32;9.70;99.90
52621;DHT22;38515;53.160;6.990;2023-04-24T08:22:58;9.80;99.90
52621;DHT22;38515;53.160;6.990;2023-04-24T08:25:24;9.80;99.90
52621;DHT22;38515;53.160;6.990;2023-04-24T08:27:50;9.70;99.90
52621;DHT22;38515;53.160;6.990;2023-04-24T08:30:17;9.80;99.90
52621;DHT22;38515;53.160;6.990;2023-04-24T08:32:42;9.80;99.90
52621;DHT22;38515;53.160;6.990;2023-04-24T08:35:08;9.80;99.90
52621;DHT22;38515;53.160;6.990;2023-04-24T08:37:35;9.60;99.90
52621;DHT22;38515;53.160;6.990;2023-04-24T08:40:15;9.50;99.90
52621;DHT22;38515;53.160;6.990;2023-04-24T08:42:45;9.60;99.90
52621;DHT22;38515;53.160;6.990;2023-04-24T08:45:12;9.50;99.90
52621;DHT22;38515;53.160;6.990;2023-04-24T08:47:39;9.40;99.90
52621;DHT22;38515;53.160;6.990;2023-04-24T08:50:06;9.40;99.90
52621;DHT22;38515;53.160;6.990;2023-04-24T08:52:33;9.30;99.90
52621;DHT22;38515;53.160;6.990;2023-04-24T08:55:03;9.40;99.90
52621;DHT22;38515;53.160;6.990;2023-04-24T08:57:31;9.20;99.90
52621;DHT22;38515;53.160;6.990;2023-04-24T08:59:58;9.30;99.90
52621;DHT22;38515;53.160;6.990;2023-04-24T09:02:26;9.30;99.90
52621;DHT22;38515;53.160;6.990;2023-04-24T09:04:53;9.20;99.90
52621;DHT22;38515;53.160;6.990;2023-04-24T09:07:19;9.20;99.90
52621;DHT22;38515;53.160;6.990;2023-04-24T09:09:48;9.10;99.90
52621;DHT22;38515;53.160;6.990;2023-04-24T09:12:16;9.00;99.90
52621;DHT22;38515;53.160;6.990;2023-04-24T09:14:42;9.10;99.90
52621;DHT22;38515;53.160;6.990;2023-04-24T09:17:11;8.40;99.90
52621;DHT22;38515;53.160;6.990;2023-04-24T09:19:37;8.90;99.90
52621;DHT22;38515;53.160;6.990;2023-04-24T09:22:07;8.90;99.90
52621;DHT22;38515;53.160;6.990;2023-04-24T09:24:34;9.00;99.90
52621;DHT22;38515;53.160;6.990;2023-04-24T09:27:02;9.00;99.90
52621;DHT22;38515;53.160;6.990;2023-04-24T09:29:29;8.90;99.90
52621;DHT22;38515;53.160;6.990;2023-04-24T09:31:55;8.80;99.90
52621;DHT22;38515;53.160;6.990;2023-04-24T09:34:23;8.90;99.90
52621;DHT22;38515;53.160;6.990;2023-04-24T09:36:52;8.80;99.90
52621;DHT22;38515;53.160;6.990;2023-04-24T09:39:18;8.60;99.90
52621;DHT22;38515;53.160;6.990;2023-04-24T09:41:51;8.70;99.90
52621;DHT22;38515;53.160;6.990;2023-04-24T09:44:21;8.60;99.90
52621;DHT22;38515;53.160;6.990;2023-04-24T09:46:55;8.50;99.90
52621;DHT22;38515;53.160;6.990;2023-04-24T09:49:26;8.60;99.90
52621;DHT22;38515;53.160;6.990;2023-04-24T09:51:53;8.50;99.90
52621;DHT22;38515;53.160;6.990;2023-04-24T09:54:27;8.50;99.90
52621;DHT22;38515;53.160;6.990;2023-04-24T09:56:55;8.40;99.90
52621;DHT22;38515;53.160;6.990;2023-04-24T09:59:22;8.50;99.90
52621;DHT22;38515;53.160;6.990;2023-04-24T10:01:49;8.40;99.90
52621;DHT22;38515;53.160;6.990;2023-04-24T10:04:20;8.50;99.90
52621;DHT22;38515;53.160;6.990;2023-04-24T10:06:48;8.50;99.90
52621;DHT22;38515;53.160;6.990;2023-04-24T10:09:15;8.50;99.90
52621;DHT22;38515;53.160;6.990;2023-04-24T10:11:43;8.40;99.90
52621;DHT22;38515;53.160;6.990;2023-04-24T10:14:15;8.50;99.90
52621;DHT22;38515;53.160;6.990;2023-04-24T10:16:42;8.40;99.90
52621;DHT22;38515;53.160;6.990;2023-04-24T10:19:09;8.40;99.90
52621;DHT22;38515;53.160;6.990;2023-04-24T10:21:35;8.50;99.90
52621;DHT22;38515;53.160;6.990;2023-04-24T10:24:05;8.40;99.90
52621;DHT22;38515;53.160;6.990;2023-04-24T10:26:33;8.50;99.90
52621;DHT22;38515;53.160;6.990;2023-04-24T10:28:59;8.50;99.90
52621;DHT22;38515;53.160;6.990;2023-04-24T10:31:26;8.40;99.90
52621;DHT22;38515;53.160;6.990;2023-04-24T10:33:53;8.30;99.90
52621;DHT22;38515;53.160;6.990;2023-04-24T10:36:22;8.30;99.90
52621;DHT22;38515;53.160;6.990;2023-04-24T10:38:49;8.30;99.90
52621;DHT22;38515;53.160;6.990;2023-04-24T10:41:18;8.20;99.90
52621;DHT22;38515;53.160;6.990;2023-04-24T10:43:46;8.30;99.90
52621;DHT22;38515;53.160;6.990;2023-04-24T10:46:19;8.10;99.90
52621;DHT22;38515;53.160;6.990;2023-04-24T10:48:54;8.30;99.90
52621;DHT22;38515;53.160;6.990;2023-04-24T10:51:22;8.30;99.90
52621;DHT22;38515;53.160;6.990;2023-04-24T10:53:50;8.20;99.90
52621;DHT22;38515;53.160;6.990;2023-04-24T10:56:17;8.40;99.90
52621;DHT22;38515;53.160;6.990;2023-04-24T10:58:53;8.30;99.90
52621;DHT22;38515;53.160;6.990;2023-04-24T11:01:30;8.40;99.90
52621;DHT22;38515;53.160;6.990;2023-04-24T11:03:58;8.40;99.90
52621;DHT22;38515;53.160;6.990;2023-04-24T11:06:32;8.40;99.90
52621;DHT22;38515;53.160;6.990;2023-04-24T11:09:06;8.40;99.90
52621;DHT22;38515;53.160;6.990;2023-04-24T11:11:33;8.40;99.90
52621;DHT22;38515;53.160;6.990;2023-04-24T11:19:06;8.50;99.90
52621;DHT22;38515;53.160;6.990;2023-04-24T11:21:43;8.60;99.90
52621;DHT22;38515;53.160;6.990;2023-04-24T11:35:13;8.80;99.90
52621;DHT22;38515;53.160;6.990;2023-04-24T11:37:41;8.90;99.90
52621;DHT22;38515;53.160;6.990;2023-04-24T11:40:09;9.00;99.90
52621;DHT22;38515;53.160;6.990;2023-04-24T11:42:47;9.00;99.90
52621;DHT22;38515;53.160;6.990;2023-04-24T11:45:22;9.00;99.90
52621;DHT22;38515;53.160;6.990;2023-04-24T11:47:48;9.00;99.90
52621;DHT22;38515;53.160;6.990;2023-04-24T11:50:15;9.10;99.90
52621;DHT22;38515;53.160;6.990;2023-04-24T11:52:44;9.00;99.90
52621;DHT22;38515;53.160;6.990;2023-04-24T11:57:49;8.80;99.90
52621;DHT22;38515;53.160;6.990;2023-04-24T12:00:20;8.60;99.90
52621;DHT22;38515;53.160;6.990;2023-04-24T12:02:46;8.60;99.90
52621;DHT22;38515;53.160;6.990;2023-04-24T12:05:24;8.60;99.90
52621;DHT22;38515;53.160;6.990;2023-04-24T12:07:50;8.60;99.90
52621;DHT22;38515;53.160;6.990;2023-04-24T12:10:20;8.70;99.90
52621;DHT22;38515;53.160;6.990;2023-04-24T12:12:47;8.70;99.90
52621;DHT22;38515;53.160;6.990;2023-04-24T12:15:16;8.50;99.90
52621;DHT22;38515;53.160;6.990;2023-04-24T12:17:43;8.70;99.90
52621;DHT22;38515;53.160;6.990;2023-04-24T12:20:09;8.70;99.90
52621;DHT22;38515;53.160;6.990;2023-04-24T12:22:51;8.70;99.90
52621;DHT22;38515;53.160;6.990;2023-04-24T12:25:26;8.80;99.90
52621;DHT22;38515;53.160;6.990;2023-04-24T12:27:54;8.90;99.90
52621;DHT22;38515;53.160;6.990;2023-04-24T12:30:22;9.00;99.90
52621;DHT22;38515;53.160;6.990;2023-04-24T12:32:51;9.10;99.90
52621;DHT22;38515;53.160;6.990;2023-04-24T12:35:22;9.20;99.90
52621;DHT22;38515;53.160;6.990;2023-04-24T12:37:48;9.20;99.90
52621;DHT22;38515;53.160;6.990;2023-04-24T12:40:16;9.00;99.90
52621;DHT22;38515;53.160;6.990;2023-04-24T12:42:44;9.00;99.90
52621;DHT22;38515;53.160;6.990;2023-04-24T12:45:11;8.80;99.90
52621;DHT22;38515;53.160;6.990;2023-04-24T12:47:40;8.90;99.90
52621;DHT22;38515;53.160;6.990;2023-04-24T12:50:08;9.90;99.90
52621;DHT22;38515;53.160;6.990;2023-04-24T12:52:34;8.80;99.90
52621;DHT22;38515;53.160;6.990;2023-04-24T12:55:00;8.60;99.90
52621;DHT22;38515;53.160;6.990;2023-04-24T12:57:29;8.50;99.90
52621;DHT22;38515;53.160;6.990;2023-04-24T12:59:57;8.50;99.90
52621;DHT22;38515;53.160;6.990;2023-04-24T13:02:24;8.50;99.90
52621;DHT22;38515;53.160;6.990;2023-04-24T13:04:50;8.50;99.90
52621;DHT22;38515;53.160;6.990;2023-04-24T13:07:17;8.60;99.90
52621;DHT22;38515;53.160;6.990;2023-04-24T13:09:44;8.60;99.90
52621;DHT22;38515;53.160;6.990;2023-04-24T13:12:10;8.70;99.90
52621;DHT22;38515;53.160;6.990;2023-04-24T13:14:37;8.80;99.90
52621;DHT22;38515;53.160;6.990;2023-04-24T13:17:04;8.90;99.90
52621;DHT22;38515;53.160;6.990;2023-04-24T13:19:34;9.00;99.90
52621;DHT22;38515;53.160;6.990;2023-04-24T13:22:01;9.20;99.90
52621;DHT22;38515;53.160;6.990;2023-04-24T13:24:27;9.30;99.90
52621;DHT22;38515;53.160;6.990;2023-04-24T13:26:53;9.30;99.90
52621;DHT22;38515;53.160;6.990;2023-04-24T13:29:19;9.30;99.90
52621;DHT22;38515;53.160;6.990;2023-04-24T13:31:46;9.30;99.90
52621;DHT22;38515;53.160;6.990;2023-04-24T13:34:13;9.30;99.90
52621;DHT22;38515;53.160;6.990;2023-04-24T13:36:39;9.20;99.90
52621;DHT22;38515;53.160;6.990;2023-04-24T13:39:06;9.20;99.90
52621;DHT22;38515;53.160;6.990;2023-04-24T13:41:35;9.10;99.90
52621;DHT22;38515;53.160;6.990;2023-04-24T13:44:02;9.00;99.90
52621;DHT22;38515;53.160;6.990;2023-04-24T13:46:28;8.90;99.90
52621;DHT22;38515;53.160;6.990;2023-04-24T13:48:54;8.80;99.90
52621;DHT22;38515;53.160;6.990;2023-04-24T13:51:20;8.70;99.90
52621;DHT22;38515;53.160;6.990;2023-04-24T13:53:46;8.70;99.90
52621;DHT22;38515;53.160;6.990;2023-04-24T13:56:12;8.70;99.90
52621;DHT22;38515;53.160;6.990;2023-04-24T13:58:39;8.60;99.90
52621;DHT22;38515;53.160;6.990;2023-04-24T14:01:05;7.90;99.90
52621;DHT22;38515;53.160;6.990;2023-04-24T14:03:33;8.50;99.90
52621;DHT22;38515;53.160;6.990;2023-04-24T14:05:59;8.50;99.90
52621;DHT22;38515;53.160;6.990;2023-04-24T14:08:25;8.50;99.90
52621;DHT22;38515;53.160;6.990;2023-04-24T14:10:51;8.50;99.90
52621;DHT22;38515;53.160;6.990;2023-04-24T14:13:17;8.60;99.90
52621;DHT22;38515;53.160;6.990;2023-04-24T14:15:43;8.60;99.90
52621;DHT22;38515;53.160;6.990;2023-04-24T14:18:08;8.80;99.90
52621;DHT22;38515;53.160;6.990;2023-04-24T14:20:35;8.90;99.90
52621;DHT22;38515;53.160;6.990;2023-04-24T14:23:00;9.00;99.90
52621;DHT22;38515;53.160;6.990;2023-04-24T14:25:26;9.10;99.90
52621;DHT22;38515;53.160;6.990;2023-04-24T14:27:52;9.20;99.90
52621;DHT22;38515;53.160;6.990;2023-04-24T14:30:18;9.20;99.90
52621;DHT22;38515;53.160;6.990;2023-04-24T14:32:44;9.10;99.90
52621;DHT22;38515;53.160;6.990;2023-04-24T14:35:10;9.10;99.90
52621;DHT22;38515;53.160;6.990;2023-04-24T14:37:36;9.10;99.90
52621;DHT22;38515;53.160;6.990;2023-04-24T14:40:03;8.90;99.90
52621;DHT22;38515;53.160;6.990;2023-04-24T14:42:30;8.80;99.90
52621;DHT22;38515;53.160;6.990;2023-04-24T14:44:56;8.60;99.90
52621;DHT22;38515;53.160;6.990;2023-04-24T14:47:22;8.50;99.90
52621;DHT22;38515;53.160;6.990;2023-04-24T14:49:48;8.30;99.90
52621;DHT22;38515;53.160;6.990;2023-04-24T14:52:14;8.40;99.90
52621;DHT22;38515;53.160;6.990;2023-04-24T14:54:41;8.40;99.90
52621;DHT22;38515;53.160;6.990;2023-04-24T14:57:07;8.40;99.90
52621;DHT22;38515;53.160;6.990;2023-04-24T14:59:33;8.50;99.90
52621;DHT22;38515;53.160;6.990;2023-04-24T15:02:00;8.50;99.90
52621;DHT22;38515;53.160;6.990;2023-04-24T15:04:28;8.50;99.90
52621;DHT22;38515;53.160;6.990;2023-04-24T15:06:55;8.50;99.90
52621;DHT22;38515;53.160;6.990;2023-04-24T15:09:22;8.40;99.90
52621;DHT22;38515;53.160;6.990;2023-04-24T15:11:49;8.40;99.90
52621;DHT22;38515;53.160;6.990;2023-04-24T15:14:16;8.60;99.90
52621;DHT22;38515;53.160;6.990;2023-04-24T15:16:42;8.60;99.90
52621;DHT22;38515;53.160;6.990;2023-04-24T15:19:08;8.70;99.90
52621;DHT22;38515;53.160;6.990;2023-04-24T15:21:35;8.80;99.90
52621;DHT22;38515;53.160;6.990;2023-04-24T15:24:01;8.80;99.90
52621;DHT22;38515;53.160;6.990;2023-04-24T15:26:27;8.80;99.90
52621;DHT22;38515;53.160;6.990;2023-04-24T15:28:53;8.90;99.90
52621;DHT22;38515;53.160;6.990;2023-04-24T15:31:19;8.90;99.90
52621;DHT22;38515;53.160;6.990;2023-04-24T15:33:45;8.90;99.90
52621;DHT22;38515;53.160;6.990;2023-04-24T15:36:11;8.90;99.90
52621;DHT22;38515;53.160;6.990;2023-04-24T15:38:37;8.80;99.90
52621;DHT22;38515;53.160;6.990;2023-04-24T15:41:03;8.80;99.90
52621;DHT22;38515;53.160;6.990;2023-04-24T15:43:29;8.70;99.90
52621;DHT22;38515;53.160;6.990;2023-04-24T15:45:57;8.70;99.90
52621;DHT22;38515;53.160;6.990;2023-04-24T15:48:23;8.60;99.90
52621;DHT22;38515;53.160;6.990;2023-04-24T15:50:49;8.60;99.90
52621;DHT22;38515;53.160;6.990;2023-04-24T15:53:14;8.70;99.90
52621;DHT22;38515;53.160;6.990;2023-04-24T15:55:50;8.60;99.90
52621;DHT22;38515;53.160;6.990;2023-04-24T15:58:20;8.60;99.90
52621;DHT22;38515;53.160;6.990;2023-04-24T16:00:46;8.60;99.90